Terminal Aerodrome Forecast
Issued by NWS

Home | Current Version | Previous Version | Graphics & Text | Print | Product List | Glossary On
Versions: 1 2 3 4 5 6 7 8 9 10 11 12 13 14 15 16 17 18 19
000
FTUS41 KCLE 200527
TAFFDY
TAF
KFDY 200527Z 2006/2106 19015KT P6SM SCT050 BKN090
     FM201200 20016G24KT P6SM VCSH BKN060
     FM201600 20020G32KT P6SM BKN050
     FM210000 19016G24KT P6SM SCT060 BKN200
     FM210500 20016G24KT P6SM VCSH BKN050=

USA.gov is the U.S. government's official web portal to all federal, state and local government web resources and services.